Terminal Aerodrome Forecast
Issued by NWS

Home | Current Version | Previous Version | Text Only | Print | Product List | Glossary On
Versions: 1 2 3 4 5 6 7 8 9 10 11 12 13 14 15 16 17 18 19 20 21 22 23 24 25
000
FTUS46 KSEW 232300
TAFSEA
TAF
KSEA 232320Z 2400/2506 22010G18KT P6SM VCSH BKN025 BKN045 OVC090
     FM240100 19008G18KT P6SM -RA BKN025 OVC045
     FM241700 20012G22KT P6SM -SHRA OVC025
     FM242100 21011KT P6SM VCSH SCT025 BKN045=

USA.gov is the U.S. government's official web portal to all federal, state and local government web resources and services.